createdAt,value
2018-11-02T00:03:17.115Z,10.60
2018-11-02T00:08:10.549Z,10.60
2018-11-02T00:13:04.015Z,10.50
2018-11-02T00:17:57.358Z,10.40
2018-11-02T00:22:50.681Z,10.40
2018-11-02T00:27:44.114Z,10.40
2018-11-02T00:32:37.457Z,10.20
2018-11-02T00:37:31.056Z,10.20
2018-11-02T00:42:24.435Z,10.30
2018-11-02T00:47:17.900Z,10.30
2018-11-02T00:52:11.257Z,10.40
2018-11-02T00:57:04.905Z,10.50
2018-11-02T01:01:59.789Z,10.60
2018-11-02T01:06:53.148Z,10.50
2018-11-02T01:11:46.571Z,10.50
2018-11-02T01:16:40.041Z,10.50
2018-11-02T01:21:33.393Z,10.50
2018-11-02T01:26:26.784Z,10.50
2018-11-02T01:31:20.361Z,10.50
2018-11-02T01:36:13.701Z,10.50
2018-11-02T01:41:07.124Z,10.60
2018-11-02T01:46:00.857Z,10.50
2018-11-02T01:50:55.198Z,10.40
2018-11-02T01:55:48.665Z,10.40
2018-11-02T02:00:41.989Z,10.40
2018-11-02T02:05:35.322Z,10.40
2018-11-02T02:10:29.279Z,10.30
2018-11-02T02:15:23.442Z,10.30
2018-11-02T02:20:16.732Z,10.30
2018-11-02T02:25:10.140Z,10.40
2018-11-02T02:30:04.122Z,10.40
2018-11-02T02:34:57.437Z,10.40
2018-11-02T02:39:50.792Z,10.20
2018-11-02T02:44:44.095Z,10.20
2018-11-02T02:49:37.459Z,10.00
2018-11-02T02:54:30.825Z,9.80
2018-11-02T02:59:24.156Z,9.70
2018-11-02T03:04:17.509Z,9.70
2018-11-02T03:09:11.653Z,9.80
2018-11-02T03:14:05.275Z,9.80
2018-11-02T03:18:58.666Z,9.80
2018-11-02T03:23:52.082Z,9.70
2018-11-02T03:28:45.477Z,9.80
2018-11-02T03:33:38.777Z,9.80
2018-11-02T03:38:32.222Z,9.70
2018-11-02T03:43:25.832Z,9.50
2018-11-02T03:48:19.181Z,9.30
2018-11-02T03:53:12.470Z,9.10
2018-11-02T03:58:06.017Z,9.00
2018-11-02T04:02:59.398Z,8.90
2018-11-02T04:07:52.752Z,8.80
2018-11-02T04:12:46.142Z,8.70
2018-11-02T04:17:39.622Z,8.60
2018-11-02T04:22:33.708Z,8.60
2018-11-02T04:27:27.114Z,8.40
2018-11-02T04:32:20.527Z,8.30
2018-11-02T04:37:13.869Z,8.20
2018-11-02T04:42:07.227Z,8.10
2018-11-02T04:47:00.526Z,8.00
2018-11-02T04:51:53.874Z,7.90
2018-11-02T04:56:47.243Z,7.80
2018-11-02T05:01:40.796Z,7.80
2018-11-02T05:06:34.238Z,7.80
2018-11-02T05:11:27.647Z,7.80
2018-11-02T05:16:20.978Z,7.80
2018-11-02T05:21:14.369Z,7.80
2018-11-02T05:26:07.984Z,7.70
2018-11-02T05:31:02.564Z,7.70
2018-11-02T05:35:56.413Z,7.70
2018-11-02T05:40:50.502Z,7.70
2018-11-02T05:45:43.814Z,7.70
2018-11-02T05:50:37.238Z,7.70
2018-11-02T05:55:31.014Z,7.80
2018-11-02T06:00:24.390Z,7.80
2018-11-02T06:05:17.797Z,7.90
2018-11-02T06:10:11.679Z,7.90
2018-11-02T06:15:05.239Z,7.90
2018-11-02T06:20:00.074Z,7.90
2018-11-02T06:24:53.495Z,7.90
2018-11-02T06:29:47.668Z,7.90
2018-11-02T06:34:41.180Z,7.90
2018-11-02T06:39:34.529Z,7.90
2018-11-02T06:44:34.664Z,7.90
2018-11-02T06:49:27.992Z,8.10
2018-11-02T06:54:21.438Z,8.20
2018-11-02T06:59:15.139Z,8.40
2018-11-02T07:04:09.138Z,8.60
2018-11-02T07:09:04.118Z,8.80
2018-11-02T07:13:58.418Z,8.80
2018-11-02T07:18:52.627Z,8.80
2018-11-02T07:23:46.110Z,8.90
2018-11-02T07:28:40.063Z,9.60
2018-11-02T07:33:33.367Z,11.10
2018-11-02T07:38:26.781Z,11.70
2018-11-02T07:43:20.188Z,11.50
2018-11-02T07:48:13.756Z,11.30
2018-11-02T07:53:07.083Z,11.10
2018-11-02T07:58:00.524Z,11.20
2018-11-02T08:02:53.858Z,11.40
2018-11-02T08:07:47.426Z,11.60
2018-11-02T08:12:40.865Z,11.80
2018-11-02T08:17:34.323Z,11.80
2018-11-02T08:22:27.761Z,12.80
2018-11-02T08:27:21.081Z,13.50
2018-11-02T08:32:14.844Z,13.60
2018-11-02T08:37:08.374Z,14.80
2018-11-02T08:42:01.701Z,16.20
2018-11-02T08:46:55.123Z,16.90
2018-11-02T08:51:48.465Z,17.40
2018-11-02T08:56:41.802Z,17.50
2018-11-02T09:01:35.203Z,17.20
2018-11-02T09:06:28.586Z,17.30
2018-11-02T09:11:22.041Z,17.00
2018-11-02T09:16:15.400Z,16.70
2018-11-02T09:21:08.735Z,16.10
2018-11-02T09:26:02.405Z,15.60
2018-11-02T09:30:55.743Z,15.30
2018-11-02T09:35:50.247Z,14.90
2018-11-02T09:40:43.593Z,15.10
2018-11-02T09:45:36.978Z,15.10
2018-11-02T09:50:30.630Z,14.80
2018-11-02T09:55:24.121Z,14.30
2018-11-02T10:00:17.508Z,14.20
2018-11-02T10:05:11.825Z,13.90
2018-11-02T10:10:07.639Z,14.00
2018-11-02T10:15:01.013Z,13.90
2018-11-02T10:19:55.094Z,13.40
2018-11-02T10:24:48.488Z,13.50
2018-11-02T10:29:42.892Z,13.40
2018-11-02T10:34:36.593Z,13.70
2018-11-02T10:39:30.264Z,13.50
2018-11-02T10:44:35.015Z,13.80
2018-11-02T10:49:28.408Z,13.70
2018-11-02T10:54:21.786Z,13.50
2018-11-02T10:59:15.148Z,13.50
2018-11-02T11:04:08.597Z,13.70
2018-11-02T11:09:01.935Z,13.60
2018-11-02T11:13:55.309Z,13.90
2018-11-02T11:18:48.702Z,13.70
2018-11-02T11:23:42.227Z,13.80
2018-11-02T11:28:35.833Z,13.70
2018-11-02T11:33:29.287Z,13.80
2018-11-02T11:38:22.808Z,13.80
2018-11-02T11:43:16.315Z,13.90
2018-11-02T11:48:09.798Z,13.90
2018-11-02T11:53:04.679Z,13.50
2018-11-02T11:57:58.098Z,13.60
2018-11-02T12:02:52.411Z,13.50
2018-11-02T12:07:46.015Z,13.30
2018-11-02T12:12:39.642Z,13.50
2018-11-02T12:17:33.316Z,13.70
2018-11-02T12:22:26.915Z,13.90
2018-11-02T12:27:20.911Z,13.70
2018-11-02T12:32:14.471Z,13.60
2018-11-02T12:37:08.410Z,13.20
2018-11-02T12:42:01.700Z,13.10
2018-11-02T12:46:55.063Z,13.10
2018-11-02T12:51:48.504Z,13.40
2018-11-02T12:56:42.004Z,13.70
2018-11-02T13:01:35.828Z,13.80
2018-11-02T13:06:29.460Z,13.30
2018-11-02T13:11:22.902Z,13.20
2018-11-02T13:16:16.320Z,13.30
2018-11-02T13:21:09.597Z,13.60
2018-11-02T13:26:03.263Z,13.50
2018-11-02T13:30:56.556Z,13.60
2018-11-02T13:35:49.924Z,13.20
2018-11-02T13:40:43.332Z,13.00
2018-11-02T13:45:36.796Z,13.30
2018-11-02T13:50:30.243Z,13.70
2018-11-02T13:55:23.562Z,13.60
2018-11-02T14:00:17.891Z,13.40
2018-11-02T14:05:12.681Z,13.20
2018-11-02T14:10:06.964Z,13.20
2018-11-02T14:15:00.412Z,13.10
2018-11-02T14:19:53.850Z,13.20
2018-11-02T14:24:47.411Z,13.40
2018-11-02T14:29:41.043Z,12.50
2018-11-02T14:34:34.401Z,13.50
2018-11-02T14:39:27.792Z,13.30
2018-11-02T14:44:21.202Z,13.20
2018-11-02T14:49:14.998Z,13.20
2018-11-02T14:54:08.410Z,13.20
2018-11-02T14:59:01.805Z,13.00
2018-11-02T15:03:55.190Z,12.90
2018-11-02T15:08:48.865Z,12.90
2018-11-02T15:13:42.340Z,12.80
2018-11-02T15:18:35.661Z,12.60
2018-11-02T15:23:28.998Z,12.30
2018-11-02T15:28:22.399Z,12.30
2018-11-02T15:33:15.705Z,12.10
2018-11-02T15:38:09.650Z,12.00
2018-11-02T15:43:03.008Z,11.80
2018-11-02T15:47:56.626Z,11.70
2018-11-02T15:52:50.055Z,11.60
2018-11-02T15:57:43.476Z,11.60
2018-11-02T16:02:37.051Z,11.60
2018-11-02T16:07:30.525Z,11.50
2018-11-02T16:12:24.130Z,11.40
2018-11-02T16:17:17.649Z,11.20
2018-11-02T16:22:11.261Z,11.10
2018-11-02T16:27:04.944Z,10.80
2018-11-02T16:31:58.727Z,10.70
2018-11-02T16:36:52.533Z,10.80
2018-11-02T16:41:45.966Z,10.80
2018-11-02T16:46:39.591Z,10.70
2018-11-02T16:51:33.053Z,10.70
2018-11-02T16:56:26.692Z,10.50
2018-11-02T17:01:20.284Z,10.50
2018-11-02T17:06:14.080Z,10.20
2018-11-02T17:11:07.474Z,10.00
2018-11-02T17:16:01.011Z,9.80
2018-11-02T17:20:54.614Z,9.60
2018-11-02T17:25:47.931Z,9.50
2018-11-02T17:30:41.624Z,9.30
2018-11-02T17:35:35.292Z,9.10
2018-11-02T17:40:28.717Z,9.00
2018-11-02T17:45:22.167Z,9.00
2018-11-02T17:50:16.160Z,9.00
2018-11-02T17:55:09.734Z,8.90
2018-11-02T18:00:03.342Z,8.90
2018-11-02T18:04:56.905Z,8.80
2018-11-02T18:09:50.623Z,8.60
2018-11-02T18:14:44.061Z,8.40
2018-11-02T18:19:37.675Z,8.40
2018-11-02T18:24:31.147Z,8.30
2018-11-02T18:29:24.529Z,8.20
2018-11-02T18:34:18.098Z,7.90
2018-11-02T18:39:13.982Z,8.00
2018-11-02T18:44:07.388Z,7.80
2018-11-02T18:49:00.970Z,7.60
2018-11-02T18:53:54.529Z,7.50
2018-11-02T18:58:48.145Z,7.40
2018-11-02T19:03:41.743Z,7.20
2018-11-02T19:08:35.194Z,7.10
2018-11-02T19:13:28.750Z,6.90
2018-11-02T19:18:22.035Z,6.90
2018-11-02T19:23:15.622Z,6.80
2018-11-02T19:28:09.173Z,6.70
2018-11-02T19:33:02.829Z,6.70
2018-11-02T19:37:56.475Z,6.50
2018-11-02T19:42:49.832Z,6.50
2018-11-02T19:47:49.085Z,6.50
2018-11-02T19:52:42.601Z,6.50
2018-11-02T19:57:36.274Z,6.40
2018-11-02T20:02:29.733Z,6.20
2018-11-02T20:07:23.143Z,6.10
2018-11-02T20:12:16.577Z,6.00
2018-11-02T20:17:10.100Z,6.00
2018-11-02T20:22:03.505Z,5.90
2018-11-02T20:26:56.973Z,5.90
2018-11-02T20:31:50.568Z,5.80
2018-11-02T20:36:44.432Z,5.70
2018-11-02T20:41:38.043Z,5.60
2018-11-02T20:46:31.519Z,5.60
2018-11-02T20:51:24.908Z,5.50
2018-11-02T20:56:18.328Z,5.40
2018-11-02T21:01:11.713Z,5.40
2018-11-02T21:06:05.581Z,5.30
2018-11-02T21:10:58.962Z,5.30
2018-11-02T21:15:52.395Z,5.20
2018-11-02T21:20:45.799Z,5.20
2018-11-02T21:25:39.336Z,5.20
2018-11-02T21:30:32.700Z,5.20
2018-11-02T21:35:26.157Z,5.00
2018-11-02T21:40:20.925Z,5.00
2018-11-02T21:45:15.596Z,4.90
2018-11-02T21:50:09.730Z,4.90
2018-11-02T21:55:03.311Z,4.80
2018-11-02T21:59:57.024Z,4.80
2018-11-02T22:04:50.513Z,4.90
2018-11-02T22:09:44.030Z,4.90
2018-11-02T22:14:37.543Z,4.90
2018-11-02T22:19:31.084Z,4.80
2018-11-02T22:24:24.401Z,4.80
2018-11-02T22:29:17.795Z,4.70
2018-11-02T22:34:11.144Z,4.70
2018-11-02T22:39:07.190Z,4.70
2018-11-02T22:44:01.010Z,4.70
2018-11-02T22:48:54.515Z,4.70
2018-11-02T22:53:49.216Z,4.60
2018-11-02T22:58:43.481Z,4.60
2018-11-02T23:03:36.861Z,4.60
2018-11-02T23:08:31.351Z,4.60
2018-11-02T23:13:25.099Z,4.70
2018-11-02T23:18:18.475Z,4.60
2018-11-02T23:23:11.851Z,4.60
2018-11-02T23:28:05.256Z,4.50
2018-11-02T23:32:58.640Z,4.50
2018-11-02T23:37:52.031Z,4.40
2018-11-02T23:42:45.387Z,4.40
2018-11-02T23:47:39.044Z,4.50
2018-11-02T23:52:32.399Z,4.40
2018-11-02T23:57:26.410Z,4.40
